createdAt,value
2023-02-14T00:00:37.836Z,77.8
2023-02-14T00:03:04.527Z,78
2023-02-14T00:07:57.893Z,79.9
2023-02-14T00:12:51.273Z,81
2023-02-14T00:15:17.950Z,80.8
2023-02-14T00:17:44.633Z,80.8
2023-02-14T00:22:36.535Z,79.7
2023-02-14T00:27:29.924Z,80.4
2023-02-14T00:29:56.601Z,80.3
2023-02-14T00:32:23.316Z,80.6
2023-02-14T00:37:16.662Z,80.8
2023-02-14T00:39:43.353Z,80.6
2023-02-14T00:42:10.033Z,80.7
2023-02-14T00:44:36.712Z,80.4
2023-02-14T00:47:03.410Z,80.2
2023-02-14T00:51:56.790Z,79.7
2023-02-14T00:56:48.680Z,78.7
2023-02-14T00:59:15.379Z,79.1
2023-02-14T01:01:43.660Z,79.5
2023-02-14T01:06:35.433Z,79.1
2023-02-14T01:11:28.810Z,79.5
2023-02-14T01:13:55.486Z,80.2
2023-02-14T01:16:22.162Z,80.3
2023-02-14T01:18:48.859Z,80.3
2023-02-14T01:21:15.553Z,80.5
2023-02-14T01:23:42.237Z,80.8
2023-02-14T01:26:08.926Z,81
2023-02-14T01:28:34.131Z,81.1
2023-02-14T01:31:00.830Z,80.9
2023-02-14T01:35:54.191Z,81
2023-02-14T01:40:47.560Z,80.8
2023-02-14T01:43:14.247Z,80.4
2023-02-14T01:45:40.924Z,80.6
2023-02-14T01:48:07.624Z,81.1
2023-02-14T01:50:34.309Z,81.1
2023-02-14T01:53:00.997Z,82
2023-02-14T01:55:27.674Z,82.2
2023-02-14T01:57:54.367Z,81.8
2023-02-14T02:00:19.596Z,80.6
2023-02-14T02:02:46.284Z,80.6
2023-02-14T02:05:12.958Z,80.6
2023-02-14T02:07:39.664Z,80.9
2023-02-14T02:10:06.337Z,81.3
2023-02-14T02:12:33.016Z,80.9
2023-02-14T02:14:59.702Z,81.3
2023-02-14T02:17:26.391Z,81.5
2023-02-14T02:19:53.082Z,81.9
2023-02-14T02:22:19.772Z,83
2023-02-14T02:24:46.464Z,83.2
2023-02-14T02:27:11.703Z,82.9
2023-02-14T02:29:36.930Z,82.9
2023-02-14T02:32:03.623Z,81.9
2023-02-14T02:34:30.292Z,81.6
2023-02-14T02:36:57.003Z,81.6
2023-02-14T02:39:23.673Z,81.9
2023-02-14T02:41:50.341Z,82
2023-02-14T02:44:17.041Z,82
2023-02-14T02:46:43.727Z,82.5
2023-02-14T02:49:10.409Z,81.9
2023-02-14T02:54:03.773Z,81
2023-02-14T02:56:30.458Z,80.8
2023-02-14T02:58:57.162Z,81.1
2023-02-14T03:01:22.374Z,82.3
2023-02-14T03:03:49.052Z,83.1
2023-02-14T03:06:15.762Z,83.2
2023-02-14T03:08:42.432Z,82.8
2023-02-14T03:11:09.099Z,83.3
2023-02-14T03:13:35.796Z,83.5
2023-02-14T03:16:02.489Z,83.3
2023-02-14T03:18:29.159Z,83.7
2023-02-14T03:20:55.850Z,83.5
2023-02-14T03:23:22.552Z,83.1
2023-02-14T03:25:49.222Z,84.2
2023-02-14T03:28:15.907Z,84
2023-02-14T03:30:42.616Z,84.3
2023-02-14T03:33:07.826Z,82.8
2023-02-14T03:38:01.186Z,82.5
2023-02-14T03:40:27.873Z,82
2023-02-14T03:42:54.557Z,82.5
2023-02-14T03:45:21.249Z,83.6
2023-02-14T03:47:47.945Z,84.5
2023-02-14T03:50:14.629Z,85
2023-02-14T03:52:41.299Z,85.4
2023-02-14T03:55:07.630Z,85.5
2023-02-14T03:57:32.856Z,85.5
2023-02-14T03:59:59.543Z,85.3
2023-02-14T04:02:26.282Z,85
2023-02-14T04:07:19.594Z,83.6
2023-02-14T04:09:46.283Z,82.8
2023-02-14T04:12:12.964Z,82.4
2023-02-14T04:14:39.637Z,82.4
2023-02-14T04:17:06.352Z,83.1
2023-02-14T04:19:33.019Z,83.3
2023-02-14T04:21:59.708Z,84.1
2023-02-14T04:24:26.383Z,84
2023-02-14T04:26:53.067Z,83.7
2023-02-14T04:29:18.312Z,83.3
2023-02-14T04:31:44.978Z,82.9
2023-02-14T04:34:11.664Z,83.7
2023-02-14T04:36:38.353Z,82.8
2023-02-14T04:39:05.034Z,81.3
2023-02-14T04:41:31.721Z,81.9
2023-02-14T04:43:58.426Z,82.7
2023-02-14T04:46:25.098Z,83.4
2023-02-14T04:48:51.782Z,84.1
2023-02-14T04:51:18.469Z,84.2
2023-02-14T04:53:45.157Z,82.6
2023-02-14T04:56:11.837Z,81
2023-02-14T04:58:38.528Z,80.7
2023-02-14T05:01:03.745Z,80.5
2023-02-14T05:03:30.429Z,81.3
2023-02-14T05:05:57.116Z,80.9
2023-02-14T05:08:23.808Z,82.3
2023-02-14T05:10:50.503Z,84
2023-02-14T05:13:17.177Z,84.8
2023-02-14T05:15:43.863Z,85.2
2023-02-14T05:18:10.553Z,85.5
2023-02-14T05:20:37.237Z,85.5
2023-02-14T05:23:03.907Z,84.3
2023-02-14T05:25:30.604Z,84
2023-02-14T05:27:57.292Z,85.3
2023-02-14T05:30:22.520Z,86
2023-02-14T05:32:49.226Z,86.6
2023-02-14T05:35:15.894Z,85.8
2023-02-14T05:37:42.588Z,84.7
2023-02-14T05:40:09.271Z,84.3
2023-02-14T05:42:35.952Z,83.2
2023-02-14T05:45:02.647Z,80.2
2023-02-14T05:47:29.335Z,81.9
2023-02-14T05:49:56.022Z,83.5
2023-02-14T05:52:22.706Z,84
2023-02-14T05:54:49.419Z,84.3
2023-02-14T05:57:16.090Z,85.8
2023-02-14T05:59:42.789Z,86.1
2023-02-14T06:02:08.003Z,86.1
2023-02-14T06:04:34.674Z,85.6
2023-02-14T06:07:01.363Z,85.4
2023-02-14T06:09:28.049Z,85.6
2023-02-14T06:11:54.745Z,85.8
2023-02-14T06:14:21.416Z,85.5
2023-02-14T06:16:48.112Z,85.1
2023-02-14T06:19:14.786Z,84.9
2023-02-14T06:21:41.477Z,84.7
2023-02-14T06:24:08.165Z,84.3
2023-02-14T06:26:34.854Z,84.2
2023-02-14T06:29:01.533Z,84.6
2023-02-14T06:31:28.225Z,85
2023-02-14T06:33:53.454Z,85.4
2023-02-14T06:36:20.136Z,85.1
2023-02-14T06:38:46.811Z,84.9
2023-02-14T06:41:13.541Z,84.9
2023-02-14T06:43:40.178Z,85.2
2023-02-14T06:46:06.873Z,85.1
2023-02-14T06:48:33.568Z,84.8
2023-02-14T06:51:00.256Z,84.5
2023-02-14T06:53:26.931Z,84.5
2023-02-14T06:55:53.628Z,83.3
2023-02-14T06:58:20.305Z,82.9
2023-02-14T07:00:47.013Z,81.7
2023-02-14T07:03:13.686Z,82.1
2023-02-14T07:05:38.912Z,83.1
2023-02-14T07:08:05.579Z,84.5
2023-02-14T07:10:32.275Z,86.3
2023-02-14T07:12:58.957Z,88.3
2023-02-14T07:15:25.684Z,95
2023-02-14T07:17:52.320Z,97.7
2023-02-14T07:20:19.015Z,100
2023-02-14T07:22:45.694Z,100
2023-02-14T07:25:12.391Z,100
2023-02-14T07:27:39.068Z,100
2023-02-14T07:30:05.763Z,100
2023-02-14T07:32:32.491Z,100
2023-02-14T07:34:59.117Z,100
2023-02-14T07:37:24.346Z,94.8
2023-02-14T07:39:51.029Z,94.5
2023-02-14T07:42:17.721Z,96.3
2023-02-14T07:44:44.472Z,93.6
2023-02-14T07:47:11.099Z,89.7
2023-02-14T07:49:37.777Z,87.6
2023-02-14T07:52:04.629Z,83.3
2023-02-14T07:54:31.150Z,77.5
2023-02-14T07:56:58.017Z,75.6
2023-02-14T07:59:24.574Z,75
2023-02-14T08:01:51.443Z,73
2023-02-14T08:04:18.030Z,70.8
2023-02-14T08:06:44.644Z,70.2
2023-02-14T08:09:09.812Z,67.5
2023-02-14T08:11:36.479Z,68.2
2023-02-14T08:14:03.230Z,68
2023-02-14T08:16:29.958Z,67.6
2023-02-14T08:18:56.614Z,67.3
2023-02-14T08:21:23.347Z,67.3
2023-02-14T08:23:49.933Z,67
2023-02-14T08:26:16.740Z,67.8
2023-02-14T08:28:43.309Z,67.3
2023-02-14T08:31:09.968Z,68.1
2023-02-14T08:33:36.784Z,64.3
2023-02-14T08:36:03.489Z,63.6
2023-02-14T08:38:30.117Z,66.5
2023-02-14T08:40:55.279Z,64.2
2023-02-14T08:45:48.657Z,65
2023-02-14T08:48:15.362Z,65
2023-02-14T08:50:42.061Z,62.6
2023-02-14T08:53:08.725Z,60.7
2023-02-14T08:55:35.375Z,59.7
2023-02-14T08:58:02.060Z,60
2023-02-14T09:00:28.719Z,59
2023-02-14T09:02:55.439Z,58.1
2023-02-14T09:05:22.088Z,58.2
2023-02-14T09:07:48.912Z,59.5
2023-02-14T09:10:15.695Z,59.7
2023-02-14T09:15:07.383Z,58.4
2023-02-14T09:17:34.057Z,58
2023-02-14T09:20:00.740Z,57.3
2023-02-14T09:22:27.429Z,57.8
2023-02-14T09:24:54.130Z,56.7
2023-02-14T09:29:47.488Z,57.3
2023-02-14T09:32:12.755Z,58
2023-02-14T09:34:37.960Z,57.4
2023-02-14T09:37:04.644Z,57.6
2023-02-14T09:39:31.328Z,57.3
2023-02-14T09:41:58.032Z,55.7
2023-02-14T09:44:24.733Z,55.8
2023-02-14T09:46:51.397Z,57.3
2023-02-14T09:49:18.080Z,57.3
2023-02-14T09:56:38.300Z,56.4
2023-02-14T09:59:04.822Z,56.1
2023-02-14T10:01:31.492Z,56.9
2023-02-14T10:03:56.750Z,59.6
2023-02-14T10:06:21.972Z,62.3
2023-02-14T10:08:48.668Z,65.8
2023-02-14T10:11:15.341Z,67.6
2023-02-14T10:13:42.032Z,73.9
2023-02-14T10:16:08.721Z,76.8
2023-02-14T10:25:55.458Z,82.5
2023-02-14T10:35:42.218Z,87
2023-02-14T10:38:07.424Z,84.8
2023-02-14T10:40:34.100Z,81.8
2023-02-14T10:45:27.492Z,83
2023-02-14T10:47:54.162Z,81.9
2023-02-14T10:50:20.861Z,80.4
2023-02-14T10:52:47.534Z,79.7
2023-02-14T10:57:40.894Z,80.3
2023-02-14T11:00:07.572Z,79.8
2023-02-14T11:02:34.283Z,80.2
2023-02-14T11:05:01.020Z,80.7
2023-02-14T11:09:54.383Z,77.5
2023-02-14T11:17:14.388Z,78.6
2023-02-14T11:19:39.686Z,77.7
2023-02-14T11:22:06.366Z,77.7
2023-02-14T11:24:32.999Z,78.2
2023-02-14T11:26:59.835Z,76.8
2023-02-14T11:29:26.508Z,77
2023-02-14T11:31:53.235Z,76.6
2023-02-14T11:34:19.836Z,77.1
2023-02-14T11:36:46.550Z,75.6
2023-02-14T11:39:13.089Z,74.7
2023-02-14T11:41:39.866Z,75.7
2023-02-14T11:44:06.454Z,75.3
2023-02-14T11:46:33.229Z,74
2023-02-14T11:48:59.981Z,73.6
2023-02-14T11:51:25.070Z,73.5
2023-02-14T11:53:51.765Z,72.8
2023-02-14T11:58:45.207Z,72.2
2023-02-14T12:01:11.892Z,71.7
2023-02-14T12:06:05.178Z,72.5
2023-02-14T12:08:31.857Z,72.5
2023-02-14T12:10:58.575Z,72.8
2023-02-14T12:13:25.471Z,72.4
2023-02-14T12:15:51.910Z,73.4
2023-02-14T12:18:18.596Z,73
2023-02-14T12:20:45.356Z,71.9
2023-02-14T12:23:10.521Z,71.9
2023-02-14T12:25:37.329Z,71.7
2023-02-14T12:28:03.855Z,71.3
2023-02-14T12:30:30.551Z,70.8
2023-02-14T12:32:57.249Z,70.6
2023-02-14T12:37:50.636Z,70.3
2023-02-14T12:40:17.360Z,69.9
2023-02-14T12:42:44.021Z,69.8
2023-02-14T12:50:04.031Z,68.8
2023-02-14T12:52:30.718Z,69.4
2023-02-14T12:54:55.945Z,68.5
2023-02-14T12:57:22.695Z,69.3
2023-02-14T12:59:49.308Z,69.4
2023-02-14T13:04:42.744Z,67.1
2023-02-14T13:07:09.365Z,67.3
2023-02-14T13:12:02.805Z,68.8
2023-02-14T13:14:29.442Z,68
2023-02-14T13:19:22.803Z,68.4
2023-02-14T13:21:49.488Z,66.8
2023-02-14T13:24:16.193Z,66.6
2023-02-14T13:29:08.089Z,66.6
2023-02-14T13:34:01.430Z,66.6
2023-02-14T13:36:28.119Z,66.2
2023-02-14T13:38:54.836Z,65.8
2023-02-14T13:41:21.516Z,67
2023-02-14T13:43:47.799Z,66.5
2023-02-14T13:46:14.484Z,66.6
2023-02-14T13:48:41.162Z,66.6
2023-02-14T13:53:34.573Z,65.6
2023-02-14T13:56:01.218Z,65.5
2023-02-14T14:00:54.601Z,64.5
2023-02-14T14:03:21.306Z,65.2
2023-02-14T14:05:47.958Z,64.6
2023-02-14T14:08:14.639Z,64.9
2023-02-14T14:10:41.334Z,65.7
2023-02-14T14:13:08.013Z,65.9
2023-02-14T14:17:59.917Z,65.4
2023-02-14T14:20:26.607Z,64.8
2023-02-14T14:22:53.278Z,65.6
2023-02-14T14:25:19.961Z,65.2
2023-02-14T14:27:46.661Z,65.8
2023-02-14T14:30:13.337Z,65
2023-02-14T14:32:40.018Z,65.2
2023-02-14T14:35:06.706Z,64.8
2023-02-14T14:37:33.398Z,64.7
2023-02-14T14:40:00.094Z,64.2
2023-02-14T14:42:26.767Z,64.6
2023-02-14T14:44:53.452Z,67.3
2023-02-14T14:47:19.752Z,65
2023-02-14T14:49:46.421Z,65.6
2023-02-14T14:52:12.796Z,66.6
2023-02-14T14:54:37.976Z,65.4
2023-02-14T14:57:04.675Z,65.2
2023-02-14T15:01:58.058Z,67.5
2023-02-14T15:04:24.714Z,69.6
2023-02-14T15:06:51.395Z,71.7
2023-02-14T15:09:18.194Z,73
2023-02-14T15:11:44.774Z,73.4
2023-02-14T15:14:11.459Z,73.5
2023-02-14T15:19:04.823Z,76.5
2023-02-14T15:21:31.503Z,78.9
2023-02-14T15:23:58.194Z,74.8
2023-02-14T15:26:24.521Z,77.3
2023-02-14T15:31:16.422Z,78.6
2023-02-14T15:33:43.127Z,78.4
2023-02-14T15:36:09.792Z,79.8
2023-02-14T15:38:36.469Z,80.5
2023-02-14T15:41:03.164Z,82.4
2023-02-14T15:45:56.522Z,84.5
2023-02-14T15:48:23.210Z,86.8
2023-02-14T15:50:49.900Z,88.6
2023-02-14T15:53:16.579Z,90.5
2023-02-14T15:55:43.267Z,91.4
2023-02-14T16:00:36.631Z,95.3
2023-02-14T16:03:01.850Z,97
2023-02-14T16:05:28.567Z,96.8
2023-02-14T16:07:55.206Z,100
2023-02-14T16:10:21.890Z,100
2023-02-14T16:12:48.566Z,100
2023-02-14T16:15:15.261Z,100
2023-02-14T16:17:41.975Z,100
2023-02-14T16:20:08.619Z,100
2023-02-14T16:22:35.310Z,100
2023-02-14T16:25:02.038Z,100
2023-02-14T16:29:55.356Z,100
2023-02-14T16:32:22.072Z,100
2023-02-14T16:34:48.348Z,100
2023-02-14T16:37:15.046Z,100
2023-02-14T16:39:41.721Z,100
2023-02-14T16:44:35.127Z,100
2023-02-14T16:47:01.770Z,100
2023-02-14T16:49:28.468Z,100
2023-02-14T16:51:55.182Z,100
2023-02-14T16:54:21.828Z,100
2023-02-14T16:59:15.196Z,100
2023-02-14T17:01:41.891Z,100
2023-02-14T17:04:08.572Z,100
2023-02-14T17:06:33.803Z,100
2023-02-14T17:09:00.482Z,100
2023-02-14T17:13:53.838Z,100
2023-02-14T17:16:20.536Z,100
2023-02-14T17:18:47.235Z,100
2023-02-14T17:21:13.896Z,100
2023-02-14T17:23:40.619Z,100
2023-02-14T17:28:33.983Z,100
2023-02-14T17:31:00.648Z,100
2023-02-14T17:33:27.323Z,100
2023-02-14T17:35:54.022Z,100
2023-02-14T17:38:20.302Z,100
2023-02-14T17:43:13.682Z,100
2023-02-14T17:45:40.359Z,95.5
2023-02-14T17:48:07.049Z,96.1
2023-02-14T17:50:33.711Z,97.5
2023-02-14T17:53:00.416Z,96.7
2023-02-14T17:57:53.785Z,97.3
2023-02-14T18:00:20.468Z,98.1
2023-02-14T18:05:13.833Z,100
2023-02-14T18:07:40.527Z,100
2023-02-14T18:12:32.451Z,97
2023-02-14T18:14:59.135Z,93.5
2023-02-14T18:17:25.806Z,92
2023-02-14T18:19:52.531Z,91.7
2023-02-14T18:22:19.178Z,89.7
2023-02-14T18:27:12.592Z,94.2
2023-02-14T18:29:39.236Z,93.5
2023-02-14T18:32:05.914Z,90.3
2023-02-14T18:34:32.586Z,88.4
2023-02-14T18:36:59.280Z,88
2023-02-14T18:41:52.663Z,86.4
2023-02-14T18:44:19.382Z,87.4
2023-02-14T18:46:44.564Z,84.5
2023-02-14T18:49:11.275Z,82.5
2023-02-14T18:56:31.302Z,79.7
2023-02-14T18:58:58.038Z,78.5
2023-02-14T19:01:24.673Z,80.9
2023-02-14T19:03:51.367Z,82.9
2023-02-14T19:06:18.078Z,83.9
2023-02-14T19:11:11.416Z,79.6
2023-02-14T19:13:38.186Z,78.6
2023-02-14T19:18:31.440Z,80.5
2023-02-14T19:20:58.161Z,79.8
2023-02-14T19:25:50.060Z,79.7
2023-02-14T19:28:16.755Z,78.3
2023-02-14T19:30:43.428Z,77.6
2023-02-14T19:33:10.123Z,77.3
2023-02-14T19:35:36.862Z,76
2023-02-14T19:42:56.853Z,75.7
2023-02-14T19:45:23.696Z,76.5
2023-02-14T19:47:50.355Z,76.4
2023-02-14T19:50:17.053Z,76.6
2023-02-14T19:55:10.379Z,76
2023-02-14T19:57:37.032Z,76.3
2023-02-14T20:00:02.188Z,75.1
2023-02-14T20:02:28.927Z,74.6
2023-02-14T20:07:22.444Z,74.5
2023-02-14T20:09:48.929Z,74.6
2023-02-14T20:12:15.731Z,74.6
2023-02-14T20:14:42.321Z,74.9
2023-02-14T20:17:09.096Z,75
2023-02-14T20:19:35.693Z,75.2
2023-02-14T20:22:02.344Z,74.8
2023-02-14T20:24:29.069Z,74.5
2023-02-14T20:26:55.712Z,74
2023-02-14T20:29:22.405Z,74
2023-02-14T20:31:49.186Z,74
2023-02-14T20:34:15.770Z,73.7
2023-02-14T20:39:09.297Z,73.6
2023-02-14T20:41:35.860Z,73.5
2023-02-14T20:44:02.598Z,73.3
2023-02-14T20:46:27.773Z,73.6
2023-02-14T20:48:54.424Z,73.8
2023-02-14T20:53:47.796Z,74.7
2023-02-14T20:56:14.518Z,74.1
2023-02-14T20:58:41.163Z,74.5
2023-02-14T21:01:07.864Z,74.1
2023-02-14T21:06:01.215Z,73.7
2023-02-14T21:08:27.901Z,74
2023-02-14T21:13:21.289Z,73.9
2023-02-14T21:15:48.058Z,73.9
2023-02-14T21:18:14.650Z,73.7
2023-02-14T21:25:34.711Z,73.5
2023-02-14T21:28:01.377Z,73.3
2023-02-14T21:30:26.746Z,73.5
2023-02-14T21:32:53.477Z,73.4
2023-02-14T21:35:20.125Z,73.4
2023-02-14T21:37:46.811Z,73.8
2023-02-14T21:40:13.448Z,72.8
2023-02-14T21:42:40.160Z,73.5
2023-02-14T21:45:06.822Z,73.3
2023-02-14T21:47:33.471Z,73.9
2023-02-14T21:50:00.103Z,73.9
2023-02-14T21:52:26.858Z,73.9
2023-02-14T21:54:52.018Z,73.8
2023-02-14T21:57:18.773Z,73.7
2023-02-14T21:59:45.461Z,73.6
2023-02-14T22:02:12.204Z,73.8
2023-02-14T22:04:38.857Z,73.6
2023-02-14T22:07:05.552Z,73.5
2023-02-14T22:09:32.216Z,72.7
2023-02-14T22:11:58.888Z,72.3
2023-02-14T22:14:24.059Z,72.2
2023-02-14T22:16:50.420Z,72.8
2023-02-14T22:21:43.817Z,73.8
2023-02-14T22:24:10.589Z,74.1
2023-02-14T22:26:37.216Z,73.6
2023-02-14T22:29:03.837Z,73.5
2023-02-14T22:31:30.477Z,73.6
2023-02-14T22:33:57.216Z,73.3
2023-02-14T22:36:23.851Z,73.5
2023-02-14T22:38:50.587Z,73.6
2023-02-14T22:41:17.224Z,73.9
2023-02-14T22:43:43.906Z,73.8
2023-02-14T22:46:10.652Z,72.7
2023-02-14T22:51:02.479Z,72.7
2023-02-14T22:58:21.091Z,74.6
2023-02-14T23:00:47.423Z,74.9
2023-02-14T23:05:40.871Z,74.3
2023-02-14T23:10:32.705Z,74.3
2023-02-14T23:12:59.396Z,74
2023-02-14T23:15:26.075Z,74.7
2023-02-14T23:20:19.485Z,75.3
2023-02-14T23:25:12.877Z,75
2023-02-14T23:27:39.493Z,74.8
2023-02-14T23:30:06.260Z,74.9
2023-02-14T23:32:32.876Z,74.4
2023-02-14T23:34:59.564Z,74.4
2023-02-14T23:39:52.943Z,74
2023-02-14T23:42:18.176Z,74.7
2023-02-14T23:44:44.835Z,75.1
2023-02-14T23:49:38.207Z,75.7
2023-02-14T23:54:31.574Z,75.9
2023-02-14T23:56:58.279Z,75.6
2023-02-14T23:59:25.004Z,75.5
